SWA1668 KDAL-KSAT
Flight info
| Callsign | SWA1668 |
|---|---|
| Flight time | N/A |
| Altitude | 26000 |
| Route | RAMBL6 WINDU QERVO3 |
| Aircraft | B38M/M-VGDW/C |
Departure
| Time | 2026-05-01 14:56 |
|---|---|
| Airport | Dallas Love Field (KDAL) |
Arrival
| Time | N/A |
|---|---|
| Airport | San Antonio International Airport (KSAT) |
| Time | Latitude | Longitude | Altitude | Speed | Heading |
|---|---|---|---|---|---|
| 2026-05-01 14:23 | 32.84589 | -96.85229 | 486 ft | 0 kts | 88° |
| 2026-05-01 14:44 | 32.84588 | -96.85272 | 480 ft | 3 kts | 88° |
| 2026-05-01 14:44 | 32.84587 | -96.85294 | 480 ft | 3 kts | 88° |
| 2026-05-01 14:45 | 32.84587 | -96.85299 | 480 ft | 0 kts | 88° |
| 2026-05-01 14:51 | 32.84586 | -96.85298 | 480 ft | 0 kts | 107° |
| 2026-05-01 14:52 | 32.84478 | -96.85335 | 484 ft | 14 kts | 201° |
| 2026-05-01 14:52 | 32.84386 | -96.85296 | 483 ft | 16 kts | 136° |
| 2026-05-01 14:52 | 32.84205 | -96.85087 | 483 ft | 20 kts | 135° |
| 2026-05-01 14:53 | 32.84099 | -96.84960 | 479 ft | 23 kts | 135° |
| 2026-05-01 14:53 | 32.83980 | -96.84824 | 486 ft | 25 kts | 137° |
| 2026-05-01 14:53 | 32.83850 | -96.84679 | 486 ft | 26 kts | 133° |
| 2026-05-01 14:53 | 32.83741 | -96.84548 | 483 ft | 13 kts | 136° |
| 2026-05-01 14:54 | 32.83673 | -96.84469 | 485 ft | 15 kts | 135° |
| 2026-05-01 14:54 | 32.83591 | -96.84373 | 485 ft | 19 kts | 135° |
| 2026-05-01 14:54 | 32.83512 | -96.84286 | 483 ft | 8 kts | 157° |
| 2026-05-01 14:54 | 32.83450 | -96.84312 | 484 ft | 13 kts | 236° |
| 2026-05-01 14:55 | 32.83463 | -96.84422 | 485 ft | 14 kts | 316° |
| 2026-05-01 14:55 | 32.83472 | -96.84433 | 482 ft | 3 kts | 316° |
| 2026-05-01 14:55 | 32.83533 | -96.84502 | 480 ft | 38 kts | 316° |
| 2026-05-01 14:55 | 32.83927 | -96.84954 | 484 ft | 118 kts | 316° |
| 2026-05-01 14:56 | 32.84687 | -96.85809 | 519 ft | 178 kts | 317° |
| 2026-05-01 14:56 | 32.85624 | -96.86924 | 1125 ft | 197 kts | 317° |
| 2026-05-01 14:56 | 32.86594 | -96.88069 | 2217 ft | 194 kts | 323° |
| 2026-05-01 14:56 | 32.87635 | -96.89254 | 2809 ft | 222 kts | 323° |
| 2026-05-01 14:57 | 32.88817 | -96.90600 | 3428 ft | 248 kts | 322° |
| 2026-05-01 14:57 | 32.91330 | -96.93666 | 4486 ft | 270 kts | 306° |
| 2026-05-01 14:57 | 32.91912 | -96.95804 | 4565 ft | 281 kts | 274° |
| 2026-05-01 14:58 | 32.91531 | -96.98071 | 5253 ft | 278 kts | 247° |
| 2026-05-01 14:58 | 32.90838 | -97.00222 | 6467 ft | 277 kts | 249° |
| 2026-05-01 14:58 | 32.89848 | -97.02223 | 7320 ft | 288 kts | 224° |
| 2026-05-01 14:58 | 32.88170 | -97.03522 | 8129 ft | 293 kts | 199° |
| 2026-05-01 14:59 | 32.86179 | -97.03928 | 8390 ft | 291 kts | 178° |
| 2026-05-01 14:59 | 32.84154 | -97.03903 | 8552 ft | 292 kts | 179° |
| 2026-05-01 14:59 | 32.82121 | -97.03901 | 8706 ft | 293 kts | 179° |
| 2026-05-01 14:59 | 32.80082 | -97.03893 | 8855 ft | 293 kts | 179° |
| 2026-05-01 15:00 | 32.76006 | -97.03874 | 9040 ft | 296 kts | 179° |
| 2026-05-01 15:00 | 32.73948 | -97.03863 | 9776 ft | 294 kts | 180° |
| 2026-05-01 15:00 | 32.71874 | -97.03853 | 10549 ft | 305 kts | 182° |
| 2026-05-01 15:01 | 32.69677 | -97.03863 | 10975 ft | 325 kts | 185° |
| 2026-05-01 15:01 | 32.67350 | -97.03990 | 11401 ft | 344 kts | 186° |
| 2026-05-01 15:01 | 32.64916 | -97.04120 | 11961 ft | 355 kts | 187° |
| 2026-05-01 15:01 | 32.62440 | -97.04244 | 12830 ft | 356 kts | 189° |
| 2026-05-01 15:02 | 32.59957 | -97.04365 | 13682 ft | 359 kts | 191° |
| 2026-05-01 15:02 | 32.58292 | -97.04447 | 14196 ft | 360 kts | 191° |
| 2026-05-01 15:02 | 32.54928 | -97.04611 | 15172 ft | 363 kts | 191° |
| 2026-05-01 15:02 | 32.52396 | -97.04734 | 15915 ft | 365 kts | 191° |
| 2026-05-01 15:03 | 32.49877 | -97.04857 | 16594 ft | 367 kts | 191° |
| 2026-05-01 15:03 | 32.47309 | -97.04983 | 17262 ft | 370 kts | 191° |
| 2026-05-01 15:03 | 32.44733 | -97.05108 | 17937 ft | 372 kts | 191° |
| 2026-05-01 15:03 | 32.42130 | -97.05235 | 18561 ft | 375 kts | 190° |
| 2026-05-01 15:04 | 32.39520 | -97.05362 | 19171 ft | 375 kts | 190° |
| 2026-05-01 15:04 | 32.36905 | -97.05489 | 19811 ft | 375 kts | 190° |
| 2026-05-01 15:04 | 32.34295 | -97.05616 | 20433 ft | 376 kts | 190° |
| 2026-05-01 15:04 | 32.31681 | -97.05743 | 21039 ft | 376 kts | 190° |
| 2026-05-01 15:05 | 32.29065 | -97.05866 | 21631 ft | 377 kts | 189° |
| 2026-05-01 15:05 | 32.26430 | -97.05948 | 22193 ft | 379 kts | 189° |
| 2026-05-01 15:05 | 32.23789 | -97.06028 | 22732 ft | 380 kts | 188° |
| 2026-05-01 15:05 | 32.21174 | -97.06110 | 23260 ft | 382 kts | 188° |
| 2026-05-01 15:06 | 32.18514 | -97.06194 | 23731 ft | 384 kts | 188° |
| 2026-05-01 15:06 | 32.15803 | -97.06280 | 24147 ft | 386 kts | 188° |
| 2026-05-01 15:06 | 32.13138 | -97.06365 | 24525 ft | 389 kts | 188° |
| 2026-05-01 15:06 | 32.10422 | -97.06451 | 24912 ft | 392 kts | 188° |
| 2026-05-01 15:07 | 32.07679 | -97.06537 | 25303 ft | 394 kts | 188° |
| 2026-05-01 15:07 | 32.04928 | -97.06625 | 25689 ft | 397 kts | 188° |
| 2026-05-01 15:07 | 32.02155 | -97.06712 | 25992 ft | 401 kts | 188° |
| 2026-05-01 15:07 | 31.99344 | -97.06801 | 26060 ft | 408 kts | 188° |
| 2026-05-01 15:08 | 31.96485 | -97.06890 | 26055 ft | 415 kts | 187° |
| 2026-05-01 15:08 | 31.93568 | -97.06982 | 26051 ft | 422 kts | 187° |
| 2026-05-01 15:08 | 31.90615 | -97.07075 | 26053 ft | 425 kts | 187° |
| 2026-05-01 15:08 | 31.87698 | -97.07167 | 26057 ft | 425 kts | 187° |
| 2026-05-01 15:09 | 31.84733 | -97.07260 | 26054 ft | 426 kts | 187° |
| 2026-05-01 15:09 | 31.81772 | -97.07353 | 26058 ft | 426 kts | 187° |
| 2026-05-01 15:09 | 31.78801 | -97.07446 | 26063 ft | 427 kts | 187° |
| 2026-05-01 15:09 | 31.75832 | -97.07540 | 26062 ft | 427 kts | 187° |
| 2026-05-01 15:10 | 31.72854 | -97.07633 | 26070 ft | 428 kts | 187° |
| 2026-05-01 15:10 | 31.66889 | -97.07820 | 26067 ft | 429 kts | 187° |
| 2026-05-01 15:10 | 31.63896 | -97.07914 | 26071 ft | 430 kts | 187° |
| 2026-05-01 15:11 | 31.60897 | -97.08007 | 26068 ft | 430 kts | 187° |
| 2026-05-01 15:11 | 31.54894 | -97.08197 | 26069 ft | 431 kts | 187° |
| 2026-05-01 15:11 | 31.52013 | -97.08760 | 26061 ft | 421 kts | 202° |
| 2026-05-01 15:12 | 31.49220 | -97.09829 | 26059 ft | 423 kts | 201° |
| 2026-05-01 15:12 | 31.43617 | -97.11969 | 26040 ft | 424 kts | 202° |
| 2026-05-01 15:12 | 31.40817 | -97.13060 | 26043 ft | 424 kts | 202° |
| 2026-05-01 15:13 | 31.32398 | -97.16356 | 26042 ft | 425 kts | 202° |
| 2026-05-01 15:14 | 31.26788 | -97.18551 | 26028 ft | 425 kts | 203° |
| 2026-05-01 15:14 | 31.23979 | -97.19649 | 26030 ft | 425 kts | 203° |
| 2026-05-01 15:14 | 31.18365 | -97.21841 | 26026 ft | 425 kts | 203° |
| 2026-05-01 15:15 | 31.12750 | -97.24031 | 26025 ft | 425 kts | 203° |
| 2026-05-01 15:15 | 31.07126 | -97.26222 | 26028 ft | 426 kts | 203° |
| 2026-05-01 15:16 | 31.01509 | -97.28407 | 26028 ft | 425 kts | 204° |
| 2026-05-01 15:16 | 30.95928 | -97.30576 | 26030 ft | 425 kts | 204° |
| 2026-05-01 15:17 | 30.90322 | -97.32751 | 26025 ft | 424 kts | 204° |
| 2026-05-01 15:18 | 30.81926 | -97.36005 | 26029 ft | 424 kts | 204° |
| 2026-05-01 15:18 | 30.79130 | -97.37087 | 26030 ft | 423 kts | 204° |
| 2026-05-01 15:19 | 30.70743 | -97.40329 | 26024 ft | 423 kts | 204° |
| 2026-05-01 15:19 | 30.65153 | -97.42486 | 26026 ft | 423 kts | 204° |
| 2026-05-01 15:19 | 30.62363 | -97.43562 | 26026 ft | 423 kts | 204° |
| 2026-05-01 15:20 | 30.56781 | -97.45713 | 26000 ft | 422 kts | 204° |
| 2026-05-01 15:20 | 30.53992 | -97.46786 | 25992 ft | 422 kts | 204° |
| 2026-05-01 15:20 | 30.51204 | -97.47859 | 25986 ft | 422 kts | 204° |
| 2026-05-01 15:21 | 30.48454 | -97.48916 | 25988 ft | 422 kts | 204° |
| 2026-05-01 15:21 | 30.45662 | -97.49988 | 25989 ft | 422 kts | 204° |
| 2026-05-01 15:21 | 30.42878 | -97.51058 | 25991 ft | 421 kts | 204° |
| 2026-05-01 15:21 | 30.40096 | -97.52126 | 25986 ft | 421 kts | 204° |
| 2026-05-01 15:22 | 30.35035 | -97.54972 | 25240 ft | 396 kts | 215° |
| 2026-05-01 15:22 | 30.32668 | -97.56589 | 24698 ft | 392 kts | 215° |
| 2026-05-01 15:22 | 30.30330 | -97.58199 | 24131 ft | 389 kts | 215° |
| 2026-05-01 15:23 | 30.28009 | -97.59802 | 23580 ft | 387 kts | 215° |
| 2026-05-01 15:23 | 30.25702 | -97.61397 | 22926 ft | 385 kts | 216° |
| 2026-05-01 15:23 | 30.23409 | -97.62982 | 22343 ft | 382 kts | 216° |
| 2026-05-01 15:23 | 30.21144 | -97.64546 | 21783 ft | 377 kts | 216° |
| 2026-05-01 15:24 | 30.18898 | -97.66097 | 21253 ft | 374 kts | 216° |
| 2026-05-01 15:24 | 30.16679 | -97.67629 | 20719 ft | 370 kts | 216° |
| 2026-05-01 15:24 | 30.14477 | -97.69148 | 20194 ft | 367 kts | 216° |
| 2026-05-01 15:24 | 30.13028 | -97.70147 | 19849 ft | 365 kts | 216° |
| 2026-05-01 15:25 | 30.10850 | -97.71648 | 19330 ft | 363 kts | 216° |
| 2026-05-01 15:25 | 30.07990 | -97.73618 | 18647 ft | 360 kts | 216° |
| 2026-05-01 15:25 | 30.05842 | -97.75097 | 18115 ft | 358 kts | 216° |
| 2026-05-01 15:25 | 30.03711 | -97.76562 | 17555 ft | 355 kts | 215° |
| 2026-05-01 15:26 | 30.02312 | -97.77524 | 17188 ft | 353 kts | 215° |
| 2026-05-01 15:26 | 30.00203 | -97.78974 | 16678 ft | 351 kts | 215° |
| 2026-05-01 15:26 | 29.98109 | -97.80413 | 16188 ft | 349 kts | 215° |
| 2026-05-01 15:26 | 29.96024 | -97.81845 | 15706 ft | 347 kts | 215° |
| 2026-05-01 15:27 | 29.93959 | -97.83262 | 15254 ft | 344 kts | 214° |
| 2026-05-01 15:27 | 29.91931 | -97.84661 | 15014 ft | 334 kts | 216° |
| 2026-05-01 15:27 | 29.90232 | -97.86441 | 14500 ft | 327 kts | 235° |
| 2026-05-01 15:28 | 29.88325 | -97.90972 | 13716 ft | 314 kts | 248° |
| 2026-05-01 15:28 | 29.87505 | -97.93299 | 13242 ft | 313 kts | 248° |
| 2026-05-01 15:28 | 29.86703 | -97.95625 | 12852 ft | 310 kts | 248° |
| 2026-05-01 15:29 | 29.85130 | -98.00245 | 12381 ft | 311 kts | 248° |
| 2026-05-01 15:29 | 29.84293 | -98.02542 | 12094 ft | 311 kts | 240° |
| 2026-05-01 15:29 | 29.81309 | -98.06052 | 11561 ft | 302 kts | 224° |
| 2026-05-01 15:30 | 29.78231 | -98.09202 | 11074 ft | 290 kts | 223° |
| 2026-05-01 15:31 | 29.72391 | -98.15098 | 10136 ft | 269 kts | 223° |
| 2026-05-01 15:31 | 29.69640 | -98.17867 | 9668 ft | 259 kts | 222° |
| 2026-05-01 15:32 | 29.66915 | -98.20608 | 9207 ft | 260 kts | 222° |
| 2026-05-01 15:32 | 29.64188 | -98.23347 | 8714 ft | 260 kts | 221° |
| 2026-05-01 15:33 | 29.60113 | -98.27436 | 8059 ft | 258 kts | 220° |
| 2026-05-01 15:34 | 29.56060 | -98.31502 | 7380 ft | 258 kts | 220° |